Time;durP1;ratioP1;P1;durP2;ratioP2;P2;SDS_P1;SDS_P2;PMS_P1;PMS_P2;Temp;Humidity;BMP_temperature;BMP_pressure;BME280_temperature;BME280_humidity;BME280_pressure;Samples;Min_cycle;Max_cycle;Signal;HPM_P1;HPM_P2
2022/03/15 00:00:43;;;;;;;25.63;12.93;;;9.30;99.90;;;;;;5091541;28;20038;-52
2022/03/15 00:03:09;;;;;;;28.80;13.05;;;9.20;99.90;;;;;;5091894;28;20032;-52
2022/03/15 00:05:34;;;;;;;29.40;14.55;;;9.10;99.90;;;;;;5091030;28;20428;-52
2022/03/15 00:08:00;;;;;;;22.23;13.35;;;9.10;99.90;;;;;;5089838;28;20051;-52
2022/03/15 00:10:27;;;;;;;25.70;14.80;;;9.10;99.90;;;;;;5091224;28;20025;-51
2022/03/15 00:12:54;;;;;;;27.80;14.95;;;9.10;99.90;;;;;;5091030;28;20686;-51
2022/03/15 00:15:20;;;;;;;28.98;13.90;;;9.20;99.90;;;;;;5091199;28;20024;-52
2022/03/15 00:17:47;;;;;;;25.10;14.23;;;9.00;99.90;;;;;;5091805;28;20032;-52
2022/03/15 00:20:19;;;;;;;26.23;13.27;;;8.70;99.90;;;;;;5091635;28;20028;-52
2022/03/15 00:22:46;;;;;;;23.73;13.88;;;8.70;99.90;;;;;;5091018;28;20081;-52
2022/03/15 00:25:16;;;;;;;30.38;13.65;;;8.80;99.90;;;;;;5091373;28;20040;-52
2022/03/15 00:27:52;;;;;;;22.38;12.95;;;8.70;99.90;;;;;;5091447;28;20035;-52
2022/03/15 00:30:22;;;;;;;26.45;13.75;;;8.70;99.90;;;;;;5091313;28;20020;-52
2022/03/15 00:32:49;;;;;;;25.13;13.95;;;8.70;99.90;;;;;;5090991;28;20030;-52
2022/03/15 00:35:18;;;;;;;26.70;13.85;;;8.70;99.90;;;;;;5090876;28;20034;-52
2022/03/15 00:37:49;;;;;;;22.25;14.02;;;8.70;99.90;;;;;;5091297;28;20043;-52
2022/03/15 00:40:16;;;;;;;27.23;13.60;;;8.80;99.90;;;;;;5090809;28;20456;-52
2022/03/15 00:42:48;;;;;;;22.48;14.32;;;8.60;99.90;;;;;;5090864;28;20073;-52
2022/03/15 00:45:13;;;;;;;27.90;14.02;;;8.50;99.90;;;;;;5091375;28;20153;-52
2022/03/15 00:47:39;;;;;;;24.63;14.35;;;8.50;99.90;;;;;;5091104;28;20107;-51
2022/03/15 00:50:05;;;;;;;25.35;14.02;;;8.40;99.90;;;;;;5091482;28;20479;-52
2022/03/15 00:52:30;;;;;;;33.55;15.02;;;8.30;99.90;;;;;;5090514;28;20135;-52
2022/03/15 00:54:56;;;;;;;28.17;14.95;;;8.30;99.90;;;;;;5090696;28;20028;-52
2022/03/15 00:57:22;;;;;;;29.48;15.50;;;8.30;99.90;;;;;;5090779;28;20027;-52
2022/03/15 00:59:48;;;;;;;29.02;15.50;;;8.50;99.90;;;;;;5090552;28;20028;-52
2022/03/15 01:02:13;;;;;;;24.10;14.88;;;8.50;99.90;;;;;;5090014;28;20435;-52
2022/03/15 01:04:39;;;;;;;33.00;15.80;;;8.50;99.90;;;;;;5090586;28;20028;-51
2022/03/15 01:07:05;;;;;;;24.13;15.30;;;8.50;99.90;;;;;;5090550;28;20035;-52
2022/03/15 01:09:31;;;;;;;28.73;14.80;;;8.50;99.90;;;;;;5090428;28;20038;-52
2022/03/15 01:11:59;;;;;;;29.67;14.43;;;8.40;99.90;;;;;;5090747;28;20052;-52
2022/03/15 01:14:25;;;;;;;28.30;14.45;;;8.20;99.90;;;;;;5090910;28;20389;-52
2022/03/15 01:16:51;;;;;;;32.95;16.02;;;8.20;99.90;;;;;;5090738;28;20081;-52
2022/03/15 01:19:16;;;;;;;27.17;16.00;;;8.30;99.90;;;;;;5090428;28;20103;-52
2022/03/15 01:21:42;;;;;;;30.58;16.27;;;8.30;99.90;;;;;;5090307;28;20032;-52
2022/03/15 01:24:09;;;;;;;31.08;16.60;;;8.30;99.90;;;;;;5090469;28;20481;-52
2022/03/15 01:26:37;;;;;;;28.50;16.27;;;8.40;99.90;;;;;;5090382;28;20016;-52
2022/03/15 01:29:03;;;;;;;23.75;15.20;;;8.40;99.90;;;;;;5090803;28;20017;-52
2022/03/15 01:31:29;;;;;;;27.40;15.93;;;8.20;99.90;;;;;;5090412;28;20503;-52
2022/03/15 01:33:55;;;;;;;30.55;15.40;;;8.10;99.90;;;;;;5090717;28;20035;-52
2022/03/15 01:36:21;;;;;;;26.88;15.68;;;8.10;99.90;;;;;;5094950;28;20481;-52
2022/03/15 01:38:47;;;;;;;27.65;15.52;;;8.00;99.90;;;;;;5095012;28;20028;-52
2022/03/15 01:41:13;;;;;;;23.50;15.10;;;8.00;99.90;;;;;;5094897;28;20072;-52
2022/03/15 01:43:40;;;;;;;24.63;15.68;;;8.00;99.90;;;;;;5094730;28;20051;-52
2022/03/15 01:46:06;;;;;;;26.65;15.43;;;8.10;99.90;;;;;;5094122;28;20027;-52
2022/03/15 01:48:32;;;;;;;26.20;16.33;;;8.10;99.90;;;;;;5094085;28;20024;-52
2022/03/15 01:50:58;;;;;;;30.77;15.95;;;8.20;99.90;;;;;;5093994;28;20028;-52
2022/03/15 01:53:25;;;;;;;30.25;16.15;;;8.10;99.90;;;;;;5093592;28;20259;-51
2022/03/15 01:55:50;;;;;;;28.80;16.38;;;8.10;99.90;;;;;;5093493;28;20020;-51
2022/03/15 01:58:16;;;;;;;32.50;16.80;;;8.10;99.90;;;;;;5094955;28;20031;-51
2022/03/15 02:00:43;;;;;;;33.42;16.77;;;8.20;99.90;;;;;;5094447;28;20066;-52
2022/03/15 02:03:09;;;;;;;32.58;16.52;;;8.30;99.90;;;;;;5093991;28;20028;-53
2022/03/15 02:05:35;;;;;;;33.47;16.15;;;8.30;99.90;;;;;;5094280;28;20038;-52
2022/03/15 02:08:14;;;;;;;26.20;16.20;;;8.30;99.90;;;;;;5093638;28;20036;-52
2022/03/15 02:10:41;;;;;;;32.63;16.35;;;8.20;99.90;;;;;;5094054;28;20056;-52
2022/03/15 02:13:12;;;;;;;26.30;14.30;;;8.20;99.90;;;;;;5094015;28;20530;-52
2022/03/15 02:15:38;;;;;;;28.25;15.77;;;8.20;99.90;;;;;;5094064;28;20024;-52
2022/03/15 02:18:05;;;;;;;25.33;14.65;;;8.30;99.90;;;;;;5093500;28;20273;-52
2022/03/15 02:20:30;;;;;;;27.13;13.93;;;8.40;99.90;;;;;;5093754;28;20059;-52
2022/03/15 02:22:57;;;;;;;23.30;14.70;;;8.50;99.90;;;;;;5093917;28;20481;-52
2022/03/15 02:25:23;;;;;;;29.42;15.05;;;8.50;99.90;;;;;;5093932;28;20397;-52
2022/03/15 02:27:51;;;;;;;24.98;15.00;;;8.50;99.90;;;;;;5093337;28;20491;-51
2022/03/15 02:30:17;;;;;;;22.92;14.65;;;8.50;99.90;;;;;;5093082;28;20431;-53
2022/03/15 02:32:44;;;;;;;25.20;14.15;;;8.40;99.90;;;;;;5092245;28;20035;-51
2022/03/15 02:35:10;;;;;;;24.00;15.00;;;8.40;99.90;;;;;;5093120;28;20025;-51
2022/03/15 02:37:36;;;;;;;24.52;14.70;;;8.50;99.90;;;;;;5093537;28;20035;-51
2022/03/15 02:40:02;;;;;;;23.08;14.55;;;8.60;99.90;;;;;;5092721;28;20028;-51
2022/03/15 02:42:28;;;;;;;32.53;14.63;;;8.50;99.90;;;;;;5092871;28;20028;-51
2022/03/15 02:44:53;;;;;;;24.67;14.32;;;8.50;99.90;;;;;;5092897;28;20027;-51
2022/03/15 02:47:19;;;;;;;22.55;13.77;;;8.50;99.90;;;;;;5092430;28;20417;-51
2022/03/15 02:49:45;;;;;;;26.10;13.93;;;8.50;99.90;;;;;;5092247;28;20023;-52
2022/03/15 02:52:10;;;;;;;25.50;12.95;;;8.60;99.90;;;;;;5092513;28;20031;-52
2022/03/15 02:54:41;;;;;;;26.77;14.43;;;8.50;99.90;;;;;;5092472;28;20068;-52
2022/03/15 02:57:10;;;;;;;25.27;14.27;;;8.40;99.90;;;;;;5093967;28;20032;-52
2022/03/15 02:59:36;;;;;;;22.38;13.70;;;8.40;99.90;;;;;;5091629;28;20523;-52
2022/03/15 03:02:03;;;;;;;23.52;14.73;;;8.30;99.90;;;;;;5092762;28;20039;-52
2022/03/15 03:04:28;;;;;;;25.92;13.93;;;8.20;99.90;;;;;;5093001;28;20040;-52
2022/03/15 03:06:54;;;;;;;20.80;13.40;;;8.20;99.90;;;;;;5092953;28;20047;-51
2022/03/15 03:09:20;;;;;;;27.48;13.73;;;8.20;99.90;;;;;;5092367;28;20097;-52
2022/03/15 03:11:46;;;;;;;23.48;13.63;;;8.10;99.90;;;;;;5093400;28;20473;-52
2022/03/15 03:14:18;;;;;;;26.05;14.48;;;8.10;99.90;;;;;;5093886;28;20027;-52
2022/03/15 03:16:43;;;;;;;24.95;14.18;;;8.10;99.90;;;;;;5094160;28;20027;-52
2022/03/15 03:19:09;;;;;;;25.88;13.02;;;8.10;99.90;;;;;;5093827;28;20436;-52
2022/03/15 03:21:36;;;;;;;21.08;13.55;;;8.10;99.90;;;;;;5093887;28;20024;-51
2022/03/15 03:24:06;;;;;;;28.85;13.90;;;8.10;99.90;;;;;;5094203;28;20494;-51
2022/03/15 03:26:37;;;;;;;23.88;13.05;;;8.10;99.90;;;;;;5095098;28;20101;-52
2022/03/15 03:29:10;;;;;;;21.27;12.90;;;8.10;99.90;;;;;;5093192;28;20039;-52
2022/03/15 03:31:40;;;;;;;22.65;12.63;;;8.20;99.90;;;;;;5093696;28;20036;-52
2022/03/15 03:34:06;;;;;;;21.25;12.88;;;8.20;99.90;;;;;;5092864;28;20448;-52
2022/03/15 03:36:36;;;;;;;26.30;13.00;;;8.20;99.90;;;;;;5092456;28;20036;-52
2022/03/15 03:39:06;;;;;;;27.95;12.32;;;8.00;99.90;;;;;;5090850;28;20024;-52
2022/03/15 03:41:31;;;;;;;23.40;13.27;;;8.10;99.90;;;;;;5091745;28;20477;-52
2022/03/15 03:43:57;;;;;;;25.98;12.63;;;8.20;99.90;;;;;;5091633;28;20077;-52
2022/03/15 03:46:24;;;;;;;23.95;12.73;;;8.20;99.90;;;;;;5091768;28;20040;-52
2022/03/15 03:48:50;;;;;;;23.08;11.52;;;8.20;99.90;;;;;;5091614;28;20063;-53
2022/03/15 03:51:17;;;;;;;23.77;12.10;;;8.20;99.90;;;;;;5091884;28;20016;-52
2022/03/15 03:53:43;;;;;;;20.80;11.77;;;8.30;99.90;;;;;;5091541;28;20035;-52
2022/03/15 03:56:09;;;;;;;23.30;11.25;;;8.40;99.90;;;;;;5090600;28;20028;-51
2022/03/15 03:58:34;;;;;;;21.85;10.30;;;8.40;99.90;;;;;;5091048;28;20081;-51
2022/03/15 04:01:04;;;;;;;20.17;9.90;;;8.50;99.90;;;;;;5091677;28;20030;-52
2022/03/15 04:03:31;;;;;;;19.17;9.95;;;8.50;99.90;;;;;;5091487;28;20500;-51
2022/03/15 04:05:57;;;;;;;22.75;10.30;;;8.50;99.90;;;;;;5091492;28;20024;-52
2022/03/15 04:08:24;;;;;;;22.02;10.23;;;8.60;99.90;;;;;;5091291;28;20101;-52
2022/03/15 04:10:50;;;;;;;20.33;10.02;;;8.70;99.90;;;;;;5091807;28;20028;-52
2022/03/15 04:13:18;;;;;;;22.10;9.77;;;8.90;99.90;;;;;;5091462;28;20024;-52
2022/03/15 04:15:48;;;;;;;21.88;9.50;;;8.90;99.90;;;;;;5092186;28;20070;-52
2022/03/15 04:18:14;;;;;;;18.42;9.65;;;8.90;99.90;;;;;;5091802;28;20505;-52
2022/03/15 04:20:40;;;;;;;16.85;9.38;;;8.70;99.90;;;;;;5091408;28;20435;-52
2022/03/15 04:23:06;;;;;;;23.60;8.82;;;8.70;99.90;;;;;;5091473;28;20035;-52
2022/03/15 04:25:32;;;;;;;20.75;9.50;;;8.70;99.90;;;;;;5091426;28;20089;-52
2022/03/15 04:28:00;;;;;;;18.23;8.70;;;8.70;99.90;;;;;;5091642;28;20027;-51
2022/03/15 04:30:30;;;;;;;21.67;9.25;;;8.70;99.90;;;;;;5090575;28;20303;-51
2022/03/15 04:32:56;;;;;;;16.25;8.38;;;8.60;99.90;;;;;;5090775;28;20028;-52
2022/03/15 04:35:22;;;;;;;17.23;7.95;;;8.60;99.90;;;;;;5090759;28;20510;-52
2022/03/15 04:37:52;;;;;;;20.25;8.20;;;8.70;99.90;;;;;;5091079;28;20024;-51
2022/03/15 04:40:18;;;;;;;17.30;7.88;;;8.90;99.90;;;;;;5090304;28;20032;-51
2022/03/15 04:42:45;;;;;;;15.15;7.50;;;9.00;99.90;;;;;;5090564;28;20024;-52
2022/03/15 04:45:12;;;;;;;12.52;7.13;;;9.10;99.90;;;;;;5090821;28;20036;-51
2022/03/15 04:47:38;;;;;;;22.35;7.68;;;8.90;99.90;;;;;;5089785;28;20477;-51
2022/03/15 04:50:04;;;;;;;15.30;6.88;;;9.00;99.90;;;;;;5090721;28;20099;-51
2022/03/15 04:52:30;;;;;;;15.45;7.47;;;9.00;99.90;;;;;;5090586;28;20031;-52
2022/03/15 04:54:56;;;;;;;15.73;6.53;;;9.20;99.90;;;;;;5089185;28;20024;-52
2022/03/15 04:57:22;;;;;;;17.08;7.25;;;9.30;99.90;;;;;;5090518;28;20024;-52
2022/03/15 04:59:47;;;;;;;16.75;7.40;;;9.40;99.90;;;;;;5090708;28;20024;-51
2022/03/15 05:02:13;;;;;;;20.48;8.25;;;9.10;99.90;;;;;;5090019;28;20028;-51
2022/03/15 05:04:38;;;;;;;14.05;6.90;;;8.90;99.90;;;;;;5090045;28;20020;-51
2022/03/15 05:07:04;;;;;;;13.75;6.78;;;8.80;99.90;;;;;;5090198;28;20105;-51
2022/03/15 05:09:30;;;;;;;13.00;6.93;;;8.90;99.90;;;;;;5092351;28;20107;-51
2022/03/15 05:11:55;;;;;;;13.38;7.43;;;8.90;99.90;;;;;;5094751;28;20073;-51
2022/03/15 05:14:21;;;;;;;15.98;7.65;;;9.00;99.90;;;;;;5094584;28;20024;-51
2022/03/15 05:16:46;;;;;;;19.95;6.78;;;8.90;99.90;;;;;;5094872;28;20024;-51
2022/03/15 05:19:12;;;;;;;18.75;7.47;;;8.80;99.90;;;;;;5094701;28;20028;-52
2022/03/15 05:21:38;;;;;;;16.95;6.90;;;8.80;99.90;;;;;;5094742;28;20072;-52
2022/03/15 05:24:04;;;;;;;11.77;6.70;;;8.80;99.90;;;;;;5094992;28;20027;-52
2022/03/15 05:26:30;;;;;;;14.88;6.57;;;8.80;99.90;;;;;;5094722;28;20024;-52
2022/03/15 05:28:55;;;;;;;17.52;6.85;;;8.80;99.90;;;;;;5095057;28;20373;-51
2022/03/15 05:31:23;;;;;;;15.05;7.43;;;8.70;99.90;;;;;;5094581;28;20099;-51
2022/03/15 05:33:48;;;;;;;15.15;7.53;;;8.70;99.90;;;;;;5094492;28;20763;-51
2022/03/15 05:36:15;;;;;;;12.27;5.68;;;8.80;99.90;;;;;;5094402;28;20059;-51
2022/03/15 05:38:41;;;;;;;15.07;6.18;;;8.70;99.90;;;;;;5095208;28;20080;-51
2022/03/15 05:41:08;;;;;;;15.10;5.95;;;8.60;99.90;;;;;;5094720;28;20404;-51
2022/03/15 05:43:34;;;;;;;13.75;6.30;;;8.60;99.90;;;;;;5094355;28;20115;-52
2022/03/15 05:46:00;;;;;;;13.77;6.30;;;8.60;99.90;;;;;;5093830;28;20024;-52
2022/03/15 05:48:26;;;;;;;19.52;9.55;;;8.50;99.90;;;;;;5093775;28;20077;-52
2022/03/15 05:50:52;;;;;;;27.52;12.65;;;8.40;99.90;;;;;;5094396;28;20064;-52
2022/03/15 05:53:17;;;;;;;16.92;9.50;;;8.50;99.90;;;;;;5093916;28;20027;-53
2022/03/15 05:55:43;;;;;;;30.23;14.98;;;8.50;99.90;;;;;;5093590;28;20028;-52
2022/03/15 05:58:09;;;;;;;28.20;13.70;;;8.50;99.90;;;;;;5092782;28;20093;-52
2022/03/15 06:00:35;;;;;;;37.20;15.52;;;8.60;99.90;;;;;;5094472;28;20024;-53
2022/03/15 06:03:00;;;;;;;41.25;13.57;;;8.60;99.90;;;;;;5093786;28;20048;-53
2022/03/15 06:05:27;;;;;;;31.08;17.10;;;8.60;99.90;;;;;;5093800;28;20095;-53
2022/03/15 06:07:53;;;;;;;25.95;11.48;;;8.60;99.90;;;;;;5094025;28;20040;-52
2022/03/15 06:10:21;;;;;;;12.60;7.07;;;8.50;99.90;;;;;;5093978;28;20080;-52
2022/03/15 06:12:48;;;;;;;20.75;7.63;;;8.30;99.90;;;;;;5093844;28;20103;-53
2022/03/15 06:15:14;;;;;;;17.70;8.00;;;8.20;99.90;;;;;;5092404;28;20043;-52
2022/03/15 06:17:52;;;;;;;17.30;6.53;;;8.30;99.90;;;;;;5093994;28;20339;-52
2022/03/15 06:20:18;;;;;;;15.93;7.47;;;8.20;99.90;;;;;;5093134;28;20048;-52
2022/03/15 06:22:46;;;;;;;16.65;8.70;;;8.20;99.90;;;;;;5094032;28;20412;-52
2022/03/15 06:25:12;;;;;;;37.67;23.85;;;8.10;99.90;;;;;;5094915;28;20012;-52
2022/03/15 06:27:38;;;;;;;24.77;8.30;;;8.10;99.90;;;;;;5095210;28;20475;-52
2022/03/15 06:30:06;;;;;;;24.17;7.55;;;8.10;99.90;;;;;;5094399;28;20099;-52
2022/03/15 06:32:33;;;;;;;16.05;7.22;;;8.10;99.90;;;;;;5094364;28;20151;-53
2022/03/15 06:34:59;;;;;;;17.90;7.47;;;8.10;99.90;;;;;;5094820;28;20373;-52
2022/03/15 06:37:31;;;;;;;13.02;7.20;;;8.20;99.90;;;;;;5094374;28;20053;-53
2022/03/15 06:39:57;;;;;;;18.77;7.90;;;8.30;99.90;;;;;;5093760;28;20080;-53
2022/03/15 06:42:23;;;;;;;20.30;8.88;;;8.50;99.90;;;;;;5093239;28;20493;-52
2022/03/15 06:44:49;;;;;;;17.90;9.07;;;8.60;99.90;;;;;;5092769;28;20035;-53
2022/03/15 06:47:15;;;;;;;22.50;10.95;;;8.50;99.90;;;;;;5092157;28;20020;-53
2022/03/15 06:49:40;;;;;;;22.30;7.90;;;8.50;99.90;;;;;;5076346;28;20028;-53
2022/03/15 06:52:07;;;;;;;19.88;7.65;;;8.50;99.90;;;;;;5078998;28;20039;-52
2022/03/15 06:54:32;;;;;;;18.92;8.60;;;8.50;99.90;;;;;;5086266;28;20493;-53
2022/03/15 06:56:58;;;;;;;20.95;8.13;;;8.60;99.90;;;;;;5069192;28;20047;-53
2022/03/15 06:59:24;;;;;;;17.52;8.70;;;8.90;99.90;;;;;;5073884;28;20035;-53
2022/03/15 07:01:50;;;;;;;22.73;9.10;;;8.90;99.90;;;;;;5070658;28;20028;-52
2022/03/15 07:04:17;;;;;;;23.05;9.45;;;9.00;99.90;;;;;;5071040;28;20021;-52
2022/03/15 07:06:43;;;;;;;27.52;9.57;;;9.10;99.90;;;;;;5074708;28;20056;-52
2022/03/15 07:09:09;;;;;;;51.00;21.95;;;9.20;99.90;;;;;;5072022;28;20114;-57
2022/03/15 07:11:35;;;;;;;188.82;83.78;;;9.30;99.90;;;;;;5068214;28;20127;-53
2022/03/15 07:14:02;;;;;;;110.20;49.63;;;9.40;99.90;;;;;;5069347;28;20118;-52
2022/03/15 07:16:28;;;;;;;118.57;49.67;;;9.60;99.90;;;;;;5072889;28;20546;-52
2022/03/15 07:18:55;;;;;;;78.20;34.67;;;9.80;99.90;;;;;;5071230;28;20036;-53
2022/03/15 07:21:20;;;;;;;87.82;36.30;;;9.80;99.90;;;;;;5073902;28;20507;-53
2022/03/15 07:23:47;;;;;;;95.65;41.45;;;9.80;99.90;;;;;;5074001;28;20052;-52
2022/03/15 07:26:12;;;;;;;86.60;35.40;;;9.60;99.90;;;;;;5075012;28;20097;-52
2022/03/15 07:28:38;;;;;;;60.25;25.73;;;9.40;99.90;;;;;;5072516;28;20068;-53
2022/03/15 07:31:04;;;;;;;34.53;15.55;;;9.50;99.90;;;;;;5066290;28;20032;-52
2022/03/15 07:33:31;;;;;;;47.45;18.10;;;9.40;99.90;;;;;;5064516;28;20021;-53
2022/03/15 07:35:58;;;;;;;25.42;11.32;;;9.40;99.90;;;;;;5071923;28;20039;-53
2022/03/15 07:38:24;;;;;;;24.60;10.40;;;9.40;99.90;;;;;;5076667;28;20123;-53
2022/03/15 07:40:52;;;;;;;20.48;9.13;;;9.50;99.90;;;;;;5065388;28;20135;-53
2022/03/15 07:43:19;;;;;;;17.65;7.80;;;9.50;99.90;;;;;;5069591;28;20040;-52
2022/03/15 07:45:45;;;;;;;18.17;7.15;;;9.40;99.90;;;;;;5071253;28;20036;-53
2022/03/15 07:48:11;;;;;;;18.45;8.13;;;9.40;99.90;;;;;;5074719;28;20090;-53
2022/03/15 07:50:37;;;;;;;15.98;7.45;;;9.30;99.90;;;;;;5073670;28;20555;-53
2022/03/15 07:53:02;;;;;;;16.58;7.50;;;9.20;99.90;;;;;;5065888;28;20432;-53
2022/03/15 07:55:28;;;;;;;17.73;7.35;;;9.20;99.90;;;;;;5071010;28;20731;-53
2022/03/15 07:57:54;;;;;;;19.40;7.78;;;9.30;99.90;;;;;;5069106;28;20032;-53
2022/03/15 08:00:19;;;;;;;16.95;8.10;;;9.40;99.90;;;;;;5067934;28;20040;-53
2022/03/15 08:02:45;;;;;;;17.10;8.38;;;9.40;99.90;;;;;;5065340;28;20255;-53
2022/03/15 08:05:11;;;;;;;19.63;9.05;;;9.50;99.90;;;;;;5068885;28;20701;-54
2022/03/15 08:07:37;;;;;;;16.02;7.15;;;9.60;99.90;;;;;;5065257;28;20072;-53
2022/03/15 08:10:07;;;;;;;22.88;8.38;;;9.70;99.90;;;;;;5067976;28;20084;-54
2022/03/15 08:12:34;;;;;;;18.80;7.78;;;9.70;99.90;;;;;;5070219;28;20035;-54
2022/03/15 08:14:59;;;;;;;20.30;7.45;;;9.80;99.90;;;;;;5066917;28;20504;-54
2022/03/15 08:17:25;;;;;;;24.30;6.80;;;9.90;99.90;;;;;;5072401;28;20032;-54
2022/03/15 08:19:51;;;;;;;16.92;6.57;;;9.90;99.90;;;;;;5070626;28;20520;-54
2022/03/15 08:22:17;;;;;;;20.10;6.80;;;10.00;99.90;;;;;;5067142;28;20041;-55
2022/03/15 08:24:43;;;;;;;17.25;6.68;;;10.10;99.90;;;;;;5070190;28;20036;-53
2022/03/15 08:27:09;;;;;;;20.80;7.07;;;10.20;99.90;;;;;;5068006;28;20138;-54
2022/03/15 08:29:34;;;;;;;19.27;7.40;;;10.20;99.90;;;;;;5068468;28;20111;-54
2022/03/15 08:32:00;;;;;;;17.92;6.85;;;10.40;99.90;;;;;;5067247;28;20450;-54
2022/03/15 08:34:26;;;;;;;19.45;7.38;;;10.30;99.90;;;;;;5067690;28;20040;-54
2022/03/15 08:36:53;;;;;;;19.08;6.00;;;10.20;99.90;;;;;;5068938;28;20043;-54
2022/03/15 08:39:22;;;;;;;15.48;6.40;;;10.40;99.90;;;;;;5067116;28;20089;-54
2022/03/15 08:41:50;;;;;;;11.18;6.43;;;10.50;99.90;;;;;;5067068;28;20030;-55
2022/03/15 08:44:19;;;;;;;15.77;5.95;;;10.50;99.90;;;;;;5072113;28;20024;-55
2022/03/15 08:46:50;;;;;;;14.55;6.78;;;10.50;99.90;;;;;;5070068;28;20094;-55
2022/03/15 08:49:17;;;;;;;18.00;8.82;;;10.30;99.90;;;;;;5069612;28;20033;-55
2022/03/15 08:51:43;;;;;;;20.70;9.90;;;10.50;99.90;;;;;;5066411;28;20024;-54
2022/03/15 08:54:09;;;;;;;15.68;7.63;;;10.30;99.90;;;;;;5067528;28;20058;-55
2022/03/15 08:56:36;;;;;;;15.18;7.45;;;10.20;99.90;;;;;;5066841;28;20063;-54
2022/03/15 08:59:02;;;;;;;19.17;8.10;;;10.40;99.90;;;;;;5068012;28;20093;-54
2022/03/15 09:01:28;;;;;;;38.15;15.88;;;10.50;99.90;;;;;;5071636;28;20032;-55
2022/03/15 09:03:54;;;;;;;101.63;39.50;;;10.50;99.90;;;;;;5068711;28;20050;-55
2022/03/15 09:06:19;;;;;;;57.97;22.40;;;10.30;99.90;;;;;;5069021;28;20044;-55
2022/03/15 09:08:46;;;;;;;38.75;13.35;;;10.30;99.90;;;;;;5070420;28;20036;-55
2022/03/15 09:11:12;;;;;;;27.83;9.10;;;10.30;99.90;;;;;;5067406;28;20542;-54
2022/03/15 09:13:38;;;;;;;16.63;5.82;;;10.40;99.90;;;;;;5069317;28;20029;-54
2022/03/15 09:16:05;;;;;;;16.63;5.72;;;10.60;99.90;;;;;;5069326;28;20048;-54
2022/03/15 09:18:32;;;;;;;18.00;5.97;;;10.80;99.90;;;;;;5066392;28;21029;-55
2022/03/15 09:20:57;;;;;;;16.38;5.45;;;10.90;99.90;;;;;;5068547;28;20044;-55
2022/03/15 09:23:23;;;;;;;10.73;5.50;;;11.00;99.90;;;;;;5069974;28;20025;-54
2022/03/15 09:25:49;;;;;;;22.75;6.03;;;11.10;99.90;;;;;;5072387;28;20109;-54
2022/03/15 09:28:16;;;;;;;14.45;5.85;;;11.20;99.90;;;;;;5068990;28;20444;-55
2022/03/15 09:30:45;;;;;;;15.82;5.38;;;11.20;99.90;;;;;;5062816;28;20032;-55
2022/03/15 09:33:11;;;;;;;18.67;5.72;;;11.20;99.90;;;;;;5067262;28;20153;-54
2022/03/15 09:35:39;;;;;;;14.82;6.03;;;11.40;99.90;;;;;;5063497;28;20044;-55
2022/03/15 09:38:06;;;;;;;14.10;5.05;;;11.40;99.90;;;;;;5067504;28;20059;-55
2022/03/15 09:40:31;;;;;;;11.30;4.93;;;11.20;99.90;;;;;;5069964;28;20056;-55
2022/03/15 09:43:01;;;;;;;17.02;5.03;;;11.20;99.90;;;;;;5064631;28;20036;-55
2022/03/15 09:45:32;;;;;;;12.95;4.80;;;11.10;99.90;;;;;;5071832;28;20614;-55
2022/03/15 09:48:01;;;;;;;13.32;5.43;;;11.30;99.90;;;;;;5066228;28;20024;-54
2022/03/15 09:50:28;;;;;;;42.40;20.55;;;11.10;99.90;;;;;;5072291;28;20035;-54
2022/03/15 09:52:55;;;;;;;9.57;4.78;;;11.00;99.90;;;;;;5068414;28;20020;-54
2022/03/15 09:55:21;;;;;;;10.23;5.07;;;11.10;99.90;;;;;;5070698;28;20146;-54
2022/03/15 09:57:46;;;;;;;11.35;4.78;;;11.00;99.90;;;;;;5088319;28;20594;-54
2022/03/15 10:00:16;;;;;;;17.27;4.95;;;11.10;99.90;;;;;;5069967;28;20033;-54
2022/03/15 10:02:46;;;;;;;10.23;4.65;;;11.30;99.90;;;;;;5069817;28;20040;-55
2022/03/15 10:05:12;;;;;;;11.77;5.00;;;11.30;99.90;;;;;;5071170;28;20465;-53
2022/03/15 10:07:38;;;;;;;10.75;5.65;;;11.20;99.90;;;;;;5068501;28;20041;-54
2022/03/15 10:10:11;;;;;;;10.98;5.45;;;11.40;99.90;;;;;;5071354;28;20021;-55
2022/03/15 10:12:37;;;;;;;;;;;11.40;99.90;;;;;;5073185;28;20027;-55
2022/03/15 10:15:12;;;;;;;17.45;7.15;;;11.40;99.90;;;;;;5068990;28;19966;-55
2022/03/15 10:17:52;;;;;;;22.23;8.52;;;11.50;99.90;;;;;;5070961;28;20456;-54
2022/03/15 10:20:18;;;;;;;18.90;10.30;;;11.60;99.90;;;;;;5070448;28;20032;-55
2022/03/15 10:22:56;;;;;;;19.40;9.63;;;11.30;99.90;;;;;;5066136;28;20032;-54
2022/03/15 10:25:23;;;;;;;17.95;8.55;;;11.40;99.90;;;;;;5073027;28;20116;-54
2022/03/15 10:27:55;;;;;;;15.98;8.15;;;11.20;99.90;;;;;;5068392;28;20119;-55
2022/03/15 10:30:22;;;;;;;19.33;9.02;;;11.00;99.90;;;;;;5069329;28;20489;-54
2022/03/15 10:32:48;;;;;;;19.92;7.78;;;10.90;99.90;;;;;;5066676;28;20389;-54
2022/03/15 10:35:21;;;;;;;27.23;9.30;;;10.90;99.90;;;;;;5069718;28;20035;-54
2022/03/15 10:37:48;;;;;;;19.23;8.82;;;10.90;99.90;;;;;;5069273;28;20073;-54
2022/03/15 10:40:15;;;;;;;19.38;8.85;;;10.90;99.90;;;;;;5073420;28;20059;-54
2022/03/15 10:42:42;;;;;;;22.27;9.50;;;11.10;99.90;;;;;;5070781;28;20042;-54
2022/03/15 10:45:34;;;;;;;16.70;7.97;;;11.20;99.90;;;;;;5071171;28;20029;-55
2022/03/15 10:48:01;;;;;;;17.60;7.75;;;11.10;99.90;;;;;;5064999;28;20093;-54
2022/03/15 10:50:29;;;;;;;15.40;8.60;;;11.20;99.90;;;;;;5068465;28;20467;-54
2022/03/15 10:52:55;;;;;;;16.25;7.60;;;11.20;99.90;;;;;;5069338;28;20397;-54
2022/03/15 10:55:30;;;;;;;19.38;8.48;;;11.20;99.90;;;;;;5068479;28;20065;-54
2022/03/15 10:58:09;;;;;;;24.65;8.00;;;11.10;99.90;;;;;;5074655;28;20430;-54
2022/03/15 11:00:40;;;;;;;18.48;7.68;;;11.30;99.90;;;;;;5069965;28;20071;-54
2022/03/15 11:03:13;;;;;;;18.70;7.35;;;11.30;99.90;;;;;;5071020;28;20548;-54
2022/03/15 11:05:40;;;;;;;18.80;7.97;;;11.40;99.90;;;;;;5072217;28;20390;-54
2022/03/15 11:08:07;;;;;;;13.75;8.15;;;11.40;99.90;;;;;;5074178;28;20497;-55
2022/03/15 11:10:34;;;;;;;20.20;8.38;;;11.50;99.90;;;;;;5066640;28;20032;-56
2022/03/15 11:13:08;;;;;;;17.90;8.07;;;11.60;99.90;;;;;;5067674;28;21337;-56
2022/03/15 11:15:42;;;;;;;25.27;8.27;;;11.70;99.90;;;;;;5071599;28;20074;-54
2022/03/15 11:18:10;;;;;;;14.40;7.97;;;12.10;99.90;;;;;;5070716;28;20122;-54
2022/03/15 11:20:39;;;;;;;23.52;8.20;;;12.30;99.90;;;;;;5072819;28;20114;-54
2022/03/15 11:23:07;;;;;;;27.23;8.70;;;12.50;99.90;;;;;;5065216;28;20032;-54
2022/03/15 11:25:39;;;;;;;21.70;8.40;;;12.80;99.90;;;;;;5067504;28;20524;-54
2022/03/15 11:28:12;;;;;;;19.40;7.90;;;13.00;99.90;;;;;;5070744;28;20020;-54
2022/03/15 11:30:38;;;;;;;;;;;13.00;99.90;;;;;;5069670;28;20078;-54
2022/03/15 11:33:06;;;;;;;23.45;8.05;;;13.10;99.90;;;;;;5071796;28;19908;-60
2022/03/15 11:35:33;;;;;;;49.65;8.07;;;13.60;99.90;;;;;;5071522;28;20039;-54
2022/03/15 11:38:02;;;;;;;24.10;7.63;;;14.20;99.90;;;;;;5074464;28;20024;-53
2022/03/15 11:40:28;;;;;;;19.45;8.10;;;14.90;99.90;;;;;;5067257;28;20020;-53
2022/03/15 11:43:07;;;;;;;13.38;7.35;;;15.10;99.90;;;;;;5071150;28;20020;-53
2022/03/15 11:45:42;;;;;;;29.83;8.60;;;15.40;99.90;;;;;;5070974;28;20063;-53
2022/03/15 11:48:21;;;;;;;16.52;6.95;;;16.20;99.90;;;;;;5064099;28;20094;-53
2022/03/15 11:51:14;;;;;;;21.77;6.18;;;16.20;99.90;;;;;;5070355;28;20024;-54
2022/03/15 11:54:06;;;;;;;;;;;17.40;99.90;;;;;;5072237;28;20629;-54
2022/03/15 11:57:01;;;;;;;30.07;6.17;;;18.50;99.90;;;;;;5067099;28;20399;-53
2022/03/15 11:59:47;;;;;;;14.30;5.45;;;19.10;99.60;;;;;;5076428;28;20453;-54
2022/03/15 12:02:13;;;;;;;12.38;5.03;;;18.70;98.70;;;;;;5073742;28;20489;-54
2022/03/15 12:04:45;;;;;;;9.93;5.03;;;18.70;99.20;;;;;;5068822;28;20024;-54
2022/03/15 12:07:12;;;;;;;10.90;4.75;;;19.20;97.40;;;;;;5071254;28;20052;-54
2022/03/15 12:09:46;;;;;;;12.63;5.35;;;19.00;97.70;;;;;;5068550;28;20032;-54
2022/03/15 12:12:11;;;;;;;9.80;5.05;;;19.60;97.70;;;;;;5063880;28;20055;-54
2022/03/15 12:14:45;;;;;;;11.95;4.70;;;19.50;96.80;;;;;;5062419;28;20032;-55
2022/03/15 12:17:13;;;;;;;6.15;3.20;;;20.60;95.50;;;;;;5069915;28;20045;-54
2022/03/15 12:19:50;;;;;;;7.15;3.80;;;21.30;92.90;;;;;;5068173;28;20032;-54
2022/03/15 12:22:24;;;;;;;8.10;3.40;;;21.30;92.20;;;;;;5068330;28;20055;-54
2022/03/15 12:25:04;;;;;;;9.70;3.05;;;22.00;91.90;;;;;;5069618;28;20066;-54
2022/03/15 12:27:30;;;;;;;3.90;2.20;;;21.60;91.10;;;;;;5071325;28;20028;-54
2022/03/15 12:29:58;;;;;;;5.43;2.65;;;21.50;91.20;;;;;;5071744;28;20039;-56
2022/03/15 12:32:25;;;;;;;5.53;2.17;;;21.80;89.50;;;;;;5071021;28;20619;-55
2022/03/15 12:34:55;;;;;;;8.43;3.35;;;21.00;90.60;;;;;;5073444;28;20086;-54
2022/03/15 12:37:38;;;;;;;7.82;3.83;;;20.50;91.90;;;;;;5070520;28;20064;-55
2022/03/15 12:40:10;;;;;;;14.13;6.18;;;22.20;90.70;;;;;;5072121;28;20022;-55
2022/03/15 12:42:37;;;;;;;7.68;3.75;;;22.30;89.30;;;;;;5068835;28;20024;-55